Meath Environmental Platform

Observations for Trim Patrick St

Time AQI Temp °C Hum % Pres Pa CO μg/m³ H₂S μg/m³ NO μg/m³ NO₂ μg/m³ O₃ μg/m³ SO₂ μg/m³ PM1 μg/m³ PM2.5 μg/m³ PM10 μg/m³
Tuesday 4 August 2026
00:12 2 17 85 38,460 0.18 1.13 1.42 27.16 7.34 0 15.71 21.45 23.6
00:11 2 17 85 38,460 0.17 1.13 1.51 23.03 13.68 0 13.14 18.7 20.57
00:10 2 17 85 38,460 0.17 1.05 1.2 24.81 8.33 0 13.14 20.06 22.07
00:09 2 17 85 38,460 0.18 0.6 1.12 22.56 8.17 0 11.43 17.31 19.04
00:08 2 17 85 38,460 0.16 1.15 0.9 22.56 17.3 0 12.29 16.62 18.28
00:07 2 17 85 38,460 0.17 2.51 0.89 25.08 10.98 0 11.43 17.3 19.03
00:06 2 17 85 38,460 0.17 6.46 0.95 25.85 11.94 0 14 19.37 21.31
00:05 2 17 85 38,460 0.18 8.73 0.95 48.31 10.7 0 13.14 19.4 21.34
00:03 2 17 85 38,460 0.18 1.57 1.27 25.05 11.34 0 14 20.08 22.08
00:02 2 17 85 38,460 0.16 1.73 1.09 24.55 15.86 0 14 18.01 19.81
00:01 2 17 85 38,460 0.16 2.2 0.97 26.92 11.64 0 13.14 18 19.79
Monday 3 August 2026
23:59 2 17 85 38,460 0.16 2.09 1.03 25.6 15.17 0 13.14 16.62 18.28
23:58 2 17 85 38,460 0.16 2.02 0.89 27.45 11.18 0 10.57 16.62 18.28
23:57 2 17 85 38,460 0.17 2.93 0.91 27.19 14.04 0 10.57 13.86 15.24
23:55 2 17 85 38,460 0.16 2.51 0.7 26.93 18.64 0 11.43 13.17 14.49
23:54 2 16.9 85 38,460 0.16 2.43 0.9 28.05 11.3 0 9.71 14.55 16
23:53 2 16.9 85 38,460 0.17 2.46 0.81 27.81 15.45 0 9.71 13.17 14.49
23:49 2 16.9 85 38,460 0.16 5.88 0.57 37.79 16.96 0 10.57 15.25 16.77
23:48 2 16.9 85 38,460 0.16 2.96 0.57 26.58 20.27 0 10.57 15.94 17.53
23:47 3 16.9 85 38,460 0.17 2.8 0.57 24.47 18.34 0 10.57 15.25 16.77